sensor_id;sensor_type;location;lat;lon;timestamp;P1;durP1;ratioP1;P2;durP2;ratioP2
38499;SDS011;24269;51.894;4.622;2022-07-30T00:01:38;9.95;;;4.68;;
38499;SDS011;24269;51.894;4.622;2022-07-30T00:04:04;12.95;;;4.65;;
38499;SDS011;24269;51.894;4.622;2022-07-30T00:06:29;12.70;;;5.25;;
38499;SDS011;24269;51.894;4.622;2022-07-30T00:08:56;9.05;;;4.82;;
38499;SDS011;24269;51.894;4.622;2022-07-30T00:11:22;11.57;;;4.70;;
38499;SDS011;24269;51.894;4.622;2022-07-30T00:13:48;11.20;;;4.85;;
38499;SDS011;24269;51.894;4.622;2022-07-30T00:16:14;8.82;;;4.60;;
38499;SDS011;24269;51.894;4.622;2022-07-30T00:18:39;10.55;;;4.53;;
38499;SDS011;24269;51.894;4.622;2022-07-30T00:21:05;11.77;;;4.63;;
38499;SDS011;24269;51.894;4.622;2022-07-30T00:23:31;10.48;;;4.60;;
38499;SDS011;24269;51.894;4.622;2022-07-30T00:25:57;12.88;;;4.60;;
38499;SDS011;24269;51.894;4.622;2022-07-30T00:28:22;11.40;;;4.90;;
38499;SDS011;24269;51.894;4.622;2022-07-30T00:30:48;10.02;;;4.07;;
38499;SDS011;24269;51.894;4.622;2022-07-30T00:33:14;13.88;;;4.63;;
38499;SDS011;24269;51.894;4.622;2022-07-30T00:35:39;13.48;;;4.82;;
38499;SDS011;24269;51.894;4.622;2022-07-30T00:38:05;10.98;;;5.07;;
38499;SDS011;24269;51.894;4.622;2022-07-30T00:40:30;9.48;;;4.38;;
38499;SDS011;24269;51.894;4.622;2022-07-30T00:42:56;10.52;;;4.30;;
38499;SDS011;24269;51.894;4.622;2022-07-30T00:45:22;11.45;;;4.80;;
38499;SDS011;24269;51.894;4.622;2022-07-30T00:47:47;11.57;;;4.75;;
38499;SDS011;24269;51.894;4.622;2022-07-30T00:50:13;10.15;;;4.50;;
38499;SDS011;24269;51.894;4.622;2022-07-30T00:52:40;10.20;;;4.57;;
38499;SDS011;24269;51.894;4.622;2022-07-30T00:55:07;10.30;;;5.00;;
38499;SDS011;24269;51.894;4.622;2022-07-30T00:57:34;11.52;;;4.97;;
38499;SDS011;24269;51.894;4.622;2022-07-30T01:00:00;12.45;;;5.30;;
38499;SDS011;24269;51.894;4.622;2022-07-30T01:02:27;8.50;;;5.07;;
38499;SDS011;24269;51.894;4.622;2022-07-30T01:04:53;12.90;;;5.13;;
38499;SDS011;24269;51.894;4.622;2022-07-30T01:07:18;12.30;;;5.20;;
38499;SDS011;24269;51.894;4.622;2022-07-30T01:09:44;14.38;;;5.47;;
38499;SDS011;24269;51.894;4.622;2022-07-30T01:12:10;12.73;;;5.30;;
38499;SDS011;24269;51.894;4.622;2022-07-30T01:14:38;11.88;;;5.45;;
38499;SDS011;24269;51.894;4.622;2022-07-30T01:17:04;9.10;;;4.82;;
38499;SDS011;24269;51.894;4.622;2022-07-30T01:19:32;9.35;;;4.93;;
38499;SDS011;24269;51.894;4.622;2022-07-30T01:24:54;11.90;;;5.43;;
38499;SDS011;24269;51.894;4.622;2022-07-30T01:27:24;12.80;;;5.85;;
38499;SDS011;24269;51.894;4.622;2022-07-30T01:29:52;14.88;;;5.90;;
38499;SDS011;24269;51.894;4.622;2022-07-30T01:32:20;9.00;;;5.15;;
38499;SDS011;24269;51.894;4.622;2022-07-30T01:34:48;11.93;;;5.63;;
38499;SDS011;24269;51.894;4.622;2022-07-30T01:37:15;11.00;;;4.82;;
38499;SDS011;24269;51.894;4.622;2022-07-30T01:39:41;10.68;;;5.47;;
38499;SDS011;24269;51.894;4.622;2022-07-30T01:42:08;11.95;;;5.63;;
38499;SDS011;24269;51.894;4.622;2022-07-30T01:44:35;10.70;;;5.22;;
38499;SDS011;24269;51.894;4.622;2022-07-30T01:47:03;13.52;;;5.60;;
38499;SDS011;24269;51.894;4.622;2022-07-30T01:49:29;9.38;;;5.03;;
38499;SDS011;24269;51.894;4.622;2022-07-30T01:51:56;10.55;;;4.80;;
38499;SDS011;24269;51.894;4.622;2022-07-30T01:54:24;12.13;;;5.13;;
38499;SDS011;24269;51.894;4.622;2022-07-30T01:56:51;8.60;;;4.95;;
38499;SDS011;24269;51.894;4.622;2022-07-30T01:59:20;9.65;;;4.60;;
38499;SDS011;24269;51.894;4.622;2022-07-30T02:01:48;9.57;;;4.68;;
38499;SDS011;24269;51.894;4.622;2022-07-30T02:04:14;9.10;;;4.82;;
38499;SDS011;24269;51.894;4.622;2022-07-30T02:09:28;8.25;;;4.47;;
38499;SDS011;24269;51.894;4.622;2022-07-30T02:11:59;10.63;;;4.60;;
38499;SDS011;24269;51.894;4.622;2022-07-30T02:14:52;11.27;;;4.85;;
38499;SDS011;24269;51.894;4.622;2022-07-30T02:20:02;10.57;;;4.72;;
38499;SDS011;24269;51.894;4.622;2022-07-30T02:22:29;9.75;;;4.90;;
38499;SDS011;24269;51.894;4.622;2022-07-30T02:24:59;11.05;;;4.80;;
38499;SDS011;24269;51.894;4.622;2022-07-30T02:27:27;12.35;;;5.18;;
38499;SDS011;24269;51.894;4.622;2022-07-30T02:29:57;6.40;;;4.82;;
38499;SDS011;24269;51.894;4.622;2022-07-30T02:32:25;8.77;;;5.10;;
38499;SDS011;24269;51.894;4.622;2022-07-30T02:34:55;11.23;;;5.28;;
38499;SDS011;24269;51.894;4.622;2022-07-30T02:37:24;11.27;;;5.53;;
38499;SDS011;24269;51.894;4.622;2022-07-30T02:39:52;11.63;;;5.57;;
38499;SDS011;24269;51.894;4.622;2022-07-30T02:42:19;8.68;;;5.30;;
38499;SDS011;24269;51.894;4.622;2022-07-30T02:44:48;8.90;;;4.85;;
38499;SDS011;24269;51.894;4.622;2022-07-30T02:47:18;7.93;;;5.00;;
38499;SDS011;24269;51.894;4.622;2022-07-30T02:49:47;9.43;;;5.18;;
38499;SDS011;24269;51.894;4.622;2022-07-30T02:52:15;10.75;;;5.10;;
38499;SDS011;24269;51.894;4.622;2022-07-30T02:54:42;9.23;;;4.68;;
38499;SDS011;24269;51.894;4.622;2022-07-30T02:57:08;9.98;;;5.03;;
38499;SDS011;24269;51.894;4.622;2022-07-30T02:59:35;8.38;;;5.10;;
38499;SDS011;24269;51.894;4.622;2022-07-30T03:02:06;10.52;;;4.72;;
38499;SDS011;24269;51.894;4.622;2022-07-30T03:04:33;10.35;;;4.80;;
38499;SDS011;24269;51.894;4.622;2022-07-30T03:07:00;10.25;;;5.13;;
38499;SDS011;24269;51.894;4.622;2022-07-30T03:09:26;10.43;;;4.80;;
38499;SDS011;24269;51.894;4.622;2022-07-30T03:11:53;8.82;;;4.88;;
38499;SDS011;24269;51.894;4.622;2022-07-30T03:14:20;10.55;;;5.15;;
38499;SDS011;24269;51.894;4.622;2022-07-30T03:16:47;11.38;;;5.20;;
38499;SDS011;24269;51.894;4.622;2022-07-30T03:19:18;8.82;;;4.45;;
38499;SDS011;24269;51.894;4.622;2022-07-30T03:21:46;16.20;;;5.22;;
38499;SDS011;24269;51.894;4.622;2022-07-30T03:24:14;11.98;;;5.88;;
38499;SDS011;24269;51.894;4.622;2022-07-30T03:26:41;9.98;;;5.18;;
38499;SDS011;24269;51.894;4.622;2022-07-30T03:29:08;11.95;;;5.47;;
38499;SDS011;24269;51.894;4.622;2022-07-30T03:31:37;10.32;;;5.53;;
38499;SDS011;24269;51.894;4.622;2022-07-30T03:34:04;12.70;;;5.32;;
38499;SDS011;24269;51.894;4.622;2022-07-30T03:36:31;9.52;;;5.75;;
38499;SDS011;24269;51.894;4.622;2022-07-30T03:38:58;11.75;;;6.53;;
38499;SDS011;24269;51.894;4.622;2022-07-30T03:41:23;12.25;;;5.75;;
38499;SDS011;24269;51.894;4.622;2022-07-30T03:43:50;12.13;;;6.10;;
38499;SDS011;24269;51.894;4.622;2022-07-30T03:46:16;10.50;;;5.72;;
38499;SDS011;24269;51.894;4.622;2022-07-30T03:48:42;12.88;;;6.22;;
38499;SDS011;24269;51.894;4.622;2022-07-30T03:51:09;12.95;;;6.25;;
38499;SDS011;24269;51.894;4.622;2022-07-30T03:53:35;12.30;;;6.43;;
38499;SDS011;24269;51.894;4.622;2022-07-30T03:56:03;13.15;;;6.03;;
38499;SDS011;24269;51.894;4.622;2022-07-30T03:58:30;11.25;;;5.82;;
38499;SDS011;24269;51.894;4.622;2022-07-30T04:00:56;12.70;;;6.30;;
38499;SDS011;24269;51.894;4.622;2022-07-30T04:03:28;10.48;;;6.00;;
38499;SDS011;24269;51.894;4.622;2022-07-30T04:05:55;10.82;;;5.75;;
38499;SDS011;24269;51.894;4.622;2022-07-30T04:08:21;8.85;;;5.88;;
38499;SDS011;24269;51.894;4.622;2022-07-30T04:10:48;12.00;;;6.53;;
38499;SDS011;24269;51.894;4.622;2022-07-30T04:13:14;10.60;;;5.72;;
38499;SDS011;24269;51.894;4.622;2022-07-30T04:18:26;12.52;;;5.53;;
38499;SDS011;24269;51.894;4.622;2022-07-30T04:20:55;9.85;;;5.53;;
38499;SDS011;24269;51.894;4.622;2022-07-30T04:23:23;11.38;;;5.60;;
38499;SDS011;24269;51.894;4.622;2022-07-30T04:25:48;10.95;;;5.95;;
38499;SDS011;24269;51.894;4.622;2022-07-30T04:28:15;12.63;;;6.28;;
38499;SDS011;24269;51.894;4.622;2022-07-30T04:30:41;10.48;;;5.75;;
38499;SDS011;24269;51.894;4.622;2022-07-30T04:33:07;12.27;;;6.18;;
38499;SDS011;24269;51.894;4.622;2022-07-30T04:35:33;9.40;;;6.00;;
38499;SDS011;24269;51.894;4.622;2022-07-30T04:37:59;14.68;;;7.00;;
38499;SDS011;24269;51.894;4.622;2022-07-30T04:40:27;11.60;;;6.43;;
38499;SDS011;24269;51.894;4.622;2022-07-30T04:42:54;10.10;;;6.68;;
38499;SDS011;24269;51.894;4.622;2022-07-30T04:45:20;11.27;;;6.15;;
38499;SDS011;24269;51.894;4.622;2022-07-30T04:47:46;10.57;;;6.30;;
38499;SDS011;24269;51.894;4.622;2022-07-30T04:50:12;11.13;;;6.28;;
38499;SDS011;24269;51.894;4.622;2022-07-30T04:52:39;9.90;;;6.40;;
38499;SDS011;24269;51.894;4.622;2022-07-30T04:55:06;9.73;;;6.40;;
38499;SDS011;24269;51.894;4.622;2022-07-30T04:57:34;14.10;;;6.43;;
38499;SDS011;24269;51.894;4.622;2022-07-30T05:00:02;13.27;;;5.93;;
38499;SDS011;24269;51.894;4.622;2022-07-30T05:02:30;11.25;;;5.82;;
38499;SDS011;24269;51.894;4.622;2022-07-30T05:04:59;12.95;;;6.00;;
38499;SDS011;24269;51.894;4.622;2022-07-30T05:07:26;10.40;;;5.32;;
38499;SDS011;24269;51.894;4.622;2022-07-30T05:09:53;11.15;;;6.28;;
38499;SDS011;24269;51.894;4.622;2022-07-30T05:12:18;10.93;;;5.70;;
38499;SDS011;24269;51.894;4.622;2022-07-30T05:14:44;10.90;;;5.13;;
38499;SDS011;24269;51.894;4.622;2022-07-30T05:17:09;8.30;;;5.53;;
38499;SDS011;24269;51.894;4.622;2022-07-30T05:19:35;11.45;;;5.13;;
38499;SDS011;24269;51.894;4.622;2022-07-30T05:22:01;9.68;;;5.18;;
38499;SDS011;24269;51.894;4.622;2022-07-30T05:24:26;10.57;;;4.80;;
38499;SDS011;24269;51.894;4.622;2022-07-30T05:26:52;11.18;;;5.18;;
38499;SDS011;24269;51.894;4.622;2022-07-30T05:29:18;12.02;;;5.40;;
38499;SDS011;24269;51.894;4.622;2022-07-30T05:31:43;9.15;;;4.80;;
38499;SDS011;24269;51.894;4.622;2022-07-30T05:34:09;12.85;;;5.03;;
38499;SDS011;24269;51.894;4.622;2022-07-30T05:36:35;11.30;;;4.45;;
38499;SDS011;24269;51.894;4.622;2022-07-30T05:39:00;10.65;;;4.90;;
38499;SDS011;24269;51.894;4.622;2022-07-30T05:41:26;11.07;;;4.35;;
38499;SDS011;24269;51.894;4.622;2022-07-30T05:43:52;8.65;;;5.07;;
38499;SDS011;24269;51.894;4.622;2022-07-30T05:46:18;9.80;;;4.70;;
38499;SDS011;24269;51.894;4.622;2022-07-30T05:48:44;10.43;;;4.25;;
38499;SDS011;24269;51.894;4.622;2022-07-30T05:51:09;10.50;;;4.43;;
38499;SDS011;24269;51.894;4.622;2022-07-30T05:53:35;8.82;;;4.00;;
38499;SDS011;24269;51.894;4.622;2022-07-30T05:56:00;11.35;;;4.20;;
38499;SDS011;24269;51.894;4.622;2022-07-30T05:58:26;10.70;;;3.80;;
38499;SDS011;24269;51.894;4.622;2022-07-30T06:00:52;9.93;;;3.58;;
38499;SDS011;24269;51.894;4.622;2022-07-30T06:03:17;7.70;;;3.75;;
38499;SDS011;24269;51.894;4.622;2022-07-30T06:05:43;8.15;;;3.60;;
38499;SDS011;24269;51.894;4.622;2022-07-30T06:08:09;7.88;;;3.55;;
38499;SDS011;24269;51.894;4.622;2022-07-30T06:10:34;8.43;;;3.17;;
38499;SDS011;24269;51.894;4.622;2022-07-30T06:13:00;7.07;;;3.58;;
38499;SDS011;24269;51.894;4.622;2022-07-30T06:15:25;11.32;;;3.28;;
38499;SDS011;24269;51.894;4.622;2022-07-30T06:17:51;7.30;;;3.00;;
38499;SDS011;24269;51.894;4.622;2022-07-30T06:20:17;8.77;;;3.00;;
38499;SDS011;24269;51.894;4.622;2022-07-30T06:22:44;6.68;;;2.75;;
38499;SDS011;24269;51.894;4.622;2022-07-30T06:25:09;7.80;;;2.50;;
38499;SDS011;24269;51.894;4.622;2022-07-30T06:27:36;6.70;;;2.55;;
38499;SDS011;24269;51.894;4.622;2022-07-30T06:30:05;7.85;;;2.80;;
38499;SDS011;24269;51.894;4.622;2022-07-30T06:32:32;7.07;;;2.80;;
38499;SDS011;24269;51.894;4.622;2022-07-30T06:34:59;7.93;;;2.55;;
38499;SDS011;24269;51.894;4.622;2022-07-30T06:37:24;6.95;;;2.40;;
38499;SDS011;24269;51.894;4.622;2022-07-30T06:39:50;4.60;;;2.10;;
38499;SDS011;24269;51.894;4.622;2022-07-30T06:42:16;8.52;;;2.13;;
38499;SDS011;24269;51.894;4.622;2022-07-30T06:44:41;6.20;;;2.20;;
38499;SDS011;24269;51.894;4.622;2022-07-30T06:47:07;6.57;;;1.90;;
38499;SDS011;24269;51.894;4.622;2022-07-30T06:49:33;6.30;;;2.00;;
38499;SDS011;24269;51.894;4.622;2022-07-30T06:52:00;5.97;;;1.90;;
38499;SDS011;24269;51.894;4.622;2022-07-30T06:54:26;11.18;;;1.90;;
38499;SDS011;24269;51.894;4.622;2022-07-30T06:56:52;6.07;;;1.80;;
38499;SDS011;24269;51.894;4.622;2022-07-30T06:59:18;5.93;;;1.70;;
38499;SDS011;24269;51.894;4.622;2022-07-30T07:01:44;6.20;;;1.70;;
38499;SDS011;24269;51.894;4.622;2022-07-30T07:04:09;6.38;;;1.48;;
38499;SDS011;24269;51.894;4.622;2022-07-30T07:06:35;5.55;;;1.77;;
38499;SDS011;24269;51.894;4.622;2022-07-30T07:09:01;5.45;;;1.70;;
38499;SDS011;24269;51.894;4.622;2022-07-30T07:11:27;4.93;;;1.60;;
38499;SDS011;24269;51.894;4.622;2022-07-30T07:13:53;6.88;;;1.65;;
38499;SDS011;24269;51.894;4.622;2022-07-30T07:16:18;7.43;;;2.30;;
38499;SDS011;24269;51.894;4.622;2022-07-30T07:18:46;5.40;;;1.80;;
38499;SDS011;24269;51.894;4.622;2022-07-30T07:21:12;6.60;;;2.03;;
38499;SDS011;24269;51.894;4.622;2022-07-30T07:23:39;5.00;;;1.80;;
38499;SDS011;24269;51.894;4.622;2022-07-30T07:26:04;5.05;;;1.80;;
38499;SDS011;24269;51.894;4.622;2022-07-30T07:28:30;5.47;;;1.85;;
38499;SDS011;24269;51.894;4.622;2022-07-30T07:30:56;6.28;;;1.92;;
38499;SDS011;24269;51.894;4.622;2022-07-30T07:33:21;7.30;;;2.13;;
38499;SDS011;24269;51.894;4.622;2022-07-30T07:35:47;4.68;;;1.70;;
38499;SDS011;24269;51.894;4.622;2022-07-30T07:38:12;8.57;;;1.63;;
38499;SDS011;24269;51.894;4.622;2022-07-30T07:40:38;8.02;;;1.80;;
38499;SDS011;24269;51.894;4.622;2022-07-30T07:43:03;5.05;;;1.60;;
38499;SDS011;24269;51.894;4.622;2022-07-30T07:45:29;6.35;;;1.80;;
38499;SDS011;24269;51.894;4.622;2022-07-30T07:47:55;5.47;;;1.48;;
38499;SDS011;24269;51.894;4.622;2022-07-30T07:50:21;4.93;;;1.60;;
38499;SDS011;24269;51.894;4.622;2022-07-30T07:52:47;7.95;;;1.90;;
38499;SDS011;24269;51.894;4.622;2022-07-30T07:55:12;5.32;;;1.45;;
38499;SDS011;24269;51.894;4.622;2022-07-30T07:57:42;5.75;;;1.50;;
38499;SDS011;24269;51.894;4.622;2022-07-30T08:00:09;3.97;;;1.33;;
38499;SDS011;24269;51.894;4.622;2022-07-30T08:02:39;2.95;;;1.10;;
38499;SDS011;24269;51.894;4.622;2022-07-30T08:05:07;5.25;;;1.30;;
38499;SDS011;24269;51.894;4.622;2022-07-30T08:07:34;4.28;;;1.52;;
38499;SDS011;24269;51.894;4.622;2022-07-30T08:10:00;4.63;;;1.30;;
38499;SDS011;24269;51.894;4.622;2022-07-30T08:12:26;5.38;;;1.40;;
38499;SDS011;24269;51.894;4.622;2022-07-30T08:14:52;4.78;;;1.30;;
38499;SDS011;24269;51.894;4.622;2022-07-30T08:17:17;6.15;;;1.55;;
38499;SDS011;24269;51.894;4.622;2022-07-30T08:19:43;3.60;;;1.10;;
38499;SDS011;24269;51.894;4.622;2022-07-30T08:22:09;6.18;;;1.50;;
38499;SDS011;24269;51.894;4.622;2022-07-30T08:24:35;5.65;;;1.27;;
38499;SDS011;24269;51.894;4.622;2022-07-30T08:27:00;6.07;;;1.50;;
38499;SDS011;24269;51.894;4.622;2022-07-30T08:29:27;4.28;;;1.23;;
38499;SDS011;24269;51.894;4.622;2022-07-30T08:31:53;4.38;;;1.20;;
38499;SDS011;24269;51.894;4.622;2022-07-30T08:34:19;4.60;;;1.30;;
38499;SDS011;24269;51.894;4.622;2022-07-30T08:36:45;3.55;;;1.30;;
38499;SDS011;24269;51.894;4.622;2022-07-30T08:39:11;4.93;;;1.20;;
38499;SDS011;24269;51.894;4.622;2022-07-30T08:41:36;5.13;;;1.20;;
38499;SDS011;24269;51.894;4.622;2022-07-30T08:44:02;6.13;;;1.15;;
38499;SDS011;24269;51.894;4.622;2022-07-30T08:46:29;5.35;;;1.27;;
38499;SDS011;24269;51.894;4.622;2022-07-30T08:48:56;5.75;;;1.63;;
38499;SDS011;24269;51.894;4.622;2022-07-30T08:51:22;6.15;;;1.85;;
38499;SDS011;24269;51.894;4.622;2022-07-30T08:53:49;5.30;;;1.23;;
38499;SDS011;24269;51.894;4.622;2022-07-30T08:56:15;6.80;;;1.15;;
38499;SDS011;24269;51.894;4.622;2022-07-30T08:58:41;5.22;;;1.65;;
38499;SDS011;24269;51.894;4.622;2022-07-30T09:01:07;3.72;;;1.17;;
38499;SDS011;24269;51.894;4.622;2022-07-30T09:03:33;3.60;;;1.20;;
38499;SDS011;24269;51.894;4.622;2022-07-30T09:05:59;3.90;;;1.40;;
38499;SDS011;24269;51.894;4.622;2022-07-30T09:08:26;4.70;;;1.23;;
38499;SDS011;24269;51.894;4.622;2022-07-30T09:10:52;3.10;;;1.10;;
38499;SDS011;24269;51.894;4.622;2022-07-30T09:13:24;3.53;;;1.10;;
38499;SDS011;24269;51.894;4.622;2022-07-30T09:15:55;4.78;;;1.50;;
38499;SDS011;24269;51.894;4.622;2022-07-30T09:18:31;4.35;;;1.17;;
38499;SDS011;24269;51.894;4.622;2022-07-30T09:21:00;4.35;;;1.13;;
38499;SDS011;24269;51.894;4.622;2022-07-30T09:23:53;4.45;;;1.10;;
38499;SDS011;24269;51.894;4.622;2022-07-30T09:26:19;4.30;;;1.20;;
38499;SDS011;24269;51.894;4.622;2022-07-30T09:28:45;3.72;;;1.10;;
38499;SDS011;24269;51.894;4.622;2022-07-30T09:31:10;4.80;;;1.20;;
38499;SDS011;24269;51.894;4.622;2022-07-30T09:33:40;2.83;;;1.08;;
38499;SDS011;24269;51.894;4.622;2022-07-30T09:36:07;4.65;;;1.00;;
38499;SDS011;24269;51.894;4.622;2022-07-30T09:41:14;4.80;;;1.33;;
38499;SDS011;24269;51.894;4.622;2022-07-30T09:43:41;3.00;;;1.02;;
38499;SDS011;24269;51.894;4.622;2022-07-30T09:46:09;5.25;;;1.30;;
38499;SDS011;24269;51.894;4.622;2022-07-30T09:48:36;5.22;;;1.48;;
38499;SDS011;24269;51.894;4.622;2022-07-30T09:51:01;4.50;;;1.20;;
38499;SDS011;24269;51.894;4.622;2022-07-30T09:53:27;4.32;;;1.02;;
38499;SDS011;24269;51.894;4.622;2022-07-30T09:55:52;4.05;;;1.42;;
38499;SDS011;24269;51.894;4.622;2022-07-30T09:58:18;4.43;;;1.33;;
38499;SDS011;24269;51.894;4.622;2022-07-30T10:03:35;5.05;;;1.23;;
38499;SDS011;24269;51.894;4.622;2022-07-30T10:11:04;3.78;;;1.00;;
38499;SDS011;24269;51.894;4.622;2022-07-30T10:13:31;4.05;;;1.08;;
38499;SDS011;24269;51.894;4.622;2022-07-30T10:15:58;5.13;;;1.30;;
38499;SDS011;24269;51.894;4.622;2022-07-30T10:18:24;6.65;;;1.30;;
38499;SDS011;24269;51.894;4.622;2022-07-30T10:20:51;3.47;;;1.20;;
38499;SDS011;24269;51.894;4.622;2022-07-30T10:23:17;3.40;;;1.10;;
38499;SDS011;24269;51.894;4.622;2022-07-30T10:25:43;4.88;;;1.17;;
38499;SDS011;24269;51.894;4.622;2022-07-30T10:28:09;4.45;;;1.17;;
38499;SDS011;24269;51.894;4.622;2022-07-30T10:30:34;5.10;;;1.20;;
38499;SDS011;24269;51.894;4.622;2022-07-30T10:33:01;3.80;;;1.10;;
38499;SDS011;24269;51.894;4.622;2022-07-30T10:35:28;3.00;;;1.10;;
38499;SDS011;24269;51.894;4.622;2022-07-30T10:37:54;3.65;;;1.25;;
38499;SDS011;24269;51.894;4.622;2022-07-30T10:40:38;6.10;;;1.50;;
38499;SDS011;24269;51.894;4.622;2022-07-30T10:43:10;7.60;;;1.38;;
38499;SDS011;24269;51.894;4.622;2022-07-30T10:45:40;3.90;;;1.27;;
38499;SDS011;24269;51.894;4.622;2022-07-30T10:48:41;5.55;;;1.63;;
38499;SDS011;24269;51.894;4.622;2022-07-30T10:51:07;3.25;;;1.10;;
38499;SDS011;24269;51.894;4.622;2022-07-30T11:01:24;3.92;;;1.10;;
38499;SDS011;24269;51.894;4.622;2022-07-30T11:06:49;3.15;;;1.23;;
38499;SDS011;24269;51.894;4.622;2022-07-30T11:12:01;5.32;;;1.40;;
38499;SDS011;24269;51.894;4.622;2022-07-30T11:17:13;6.43;;;1.77;;
38499;SDS011;24269;51.894;4.622;2022-07-30T11:22:35;8.30;;;1.50;;
38499;SDS011;24269;51.894;4.622;2022-07-30T11:25:47;5.45;;;1.50;;
38499;SDS011;24269;51.894;4.622;2022-07-30T11:27:54;3.90;;;1.52;;
38499;SDS011;24269;51.894;4.622;2022-07-30T11:32:47;4.60;;;1.20;;
38499;SDS011;24269;51.894;4.622;2022-07-30T11:37:56;5.47;;;1.70;;
38499;SDS011;24269;51.894;4.622;2022-07-30T11:40:22;5.60;;;1.50;;
38499;SDS011;24269;51.894;4.622;2022-07-30T11:42:49;6.68;;;1.80;;
38499;SDS011;24269;51.894;4.622;2022-07-30T11:47:46;5.57;;;1.92;;
38499;SDS011;24269;51.894;4.622;2022-07-30T11:50:20;8.60;;;1.80;;
38499;SDS011;24269;51.894;4.622;2022-07-30T11:52:51;5.47;;;1.85;;
38499;SDS011;24269;51.894;4.622;2022-07-30T11:55:22;7.03;;;1.70;;
38499;SDS011;24269;51.894;4.622;2022-07-30T11:57:54;5.32;;;1.40;;
38499;SDS011;24269;51.894;4.622;2022-07-30T12:00:21;8.55;;;1.90;;
38499;SDS011;24269;51.894;4.622;2022-07-30T12:02:47;5.75;;;1.50;;
38499;SDS011;24269;51.894;4.622;2022-07-30T12:05:13;5.38;;;1.25;;
38499;SDS011;24269;51.894;4.622;2022-07-30T12:07:40;5.93;;;1.52;;
38499;SDS011;24269;51.894;4.622;2022-07-30T12:10:16;6.78;;;1.40;;
38499;SDS011;24269;51.894;4.622;2022-07-30T12:12:45;6.53;;;1.40;;
38499;SDS011;24269;51.894;4.622;2022-07-30T12:15:26;3.90;;;1.17;;
38499;SDS011;24269;51.894;4.622;2022-07-30T12:17:54;5.72;;;1.27;;
38499;SDS011;24269;51.894;4.622;2022-07-30T12:20:19;4.78;;;1.70;;
38499;SDS011;24269;51.894;4.622;2022-07-30T12:22:45;4.88;;;1.77;;
38499;SDS011;24269;51.894;4.622;2022-07-30T12:25:11;5.55;;;2.22;;
38499;SDS011;24269;51.894;4.622;2022-07-30T12:27:38;5.32;;;1.52;;
38499;SDS011;24269;51.894;4.622;2022-07-30T12:30:05;5.80;;;1.40;;
38499;SDS011;24269;51.894;4.622;2022-07-30T12:32:32;3.95;;;1.25;;
38499;SDS011;24269;51.894;4.622;2022-07-30T12:34:59;6.80;;;1.35;;
38499;SDS011;24269;51.894;4.622;2022-07-30T12:37:24;3.10;;;1.08;;
38499;SDS011;24269;51.894;4.622;2022-07-30T12:40:06;4.35;;;1.30;;
38499;SDS011;24269;51.894;4.622;2022-07-30T12:42:34;4.75;;;1.45;;
38499;SDS011;24269;51.894;4.622;2022-07-30T12:45:00;5.72;;;1.25;;
38499;SDS011;24269;51.894;4.622;2022-07-30T12:47:26;6.95;;;1.17;;
38499;SDS011;24269;51.894;4.622;2022-07-30T12:49:58;4.70;;;1.33;;
38499;SDS011;24269;51.894;4.622;2022-07-30T12:52:25;4.43;;;1.10;;
38499;SDS011;24269;51.894;4.622;2022-07-30T12:55:07;7.13;;;1.30;;
38499;SDS011;24269;51.894;4.622;2022-07-30T12:57:53;4.28;;;1.30;;
38499;SDS011;24269;51.894;4.622;2022-07-30T13:00:29;5.72;;;1.38;;
38499;SDS011;24269;51.894;4.622;2022-07-30T13:02:56;5.18;;;1.35;;
38499;SDS011;24269;51.894;4.622;2022-07-30T13:05:42;3.40;;;1.10;;
38499;SDS011;24269;51.894;4.622;2022-07-30T13:08:11;6.53;;;1.45;;
38499;SDS011;24269;51.894;4.622;2022-07-30T13:10:37;3.88;;;1.10;;
38499;SDS011;24269;51.894;4.622;2022-07-30T13:13:03;5.07;;;1.10;;
38499;SDS011;24269;51.894;4.622;2022-07-30T13:15:28;3.83;;;1.30;;
38499;SDS011;24269;51.894;4.622;2022-07-30T13:17:54;7.45;;;1.13;;
38499;SDS011;24269;51.894;4.622;2022-07-30T13:20:20;5.65;;;1.13;;
38499;SDS011;24269;51.894;4.622;2022-07-30T13:22:45;5.43;;;1.30;;
38499;SDS011;24269;51.894;4.622;2022-07-30T13:25:11;4.40;;;1.10;;
38499;SDS011;24269;51.894;4.622;2022-07-30T13:27:37;4.68;;;1.48;;
38499;SDS011;24269;51.894;4.622;2022-07-30T13:30:03;4.82;;;1.10;;
38499;SDS011;24269;51.894;4.622;2022-07-30T13:32:30;5.30;;;1.20;;
38499;SDS011;24269;51.894;4.622;2022-07-30T13:34:55;5.07;;;1.23;;
38499;SDS011;24269;51.894;4.622;2022-07-30T13:37:21;4.30;;;1.25;;
38499;SDS011;24269;51.894;4.622;2022-07-30T13:39:47;4.63;;;1.10;;
38499;SDS011;24269;51.894;4.622;2022-07-30T13:42:13;4.85;;;1.15;;
38499;SDS011;24269;51.894;4.622;2022-07-30T13:44:39;5.55;;;1.45;;
38499;SDS011;24269;51.894;4.622;2022-07-30T13:47:04;4.50;;;1.10;;
38499;SDS011;24269;51.894;4.622;2022-07-30T13:49:32;4.03;;;1.20;;
38499;SDS011;24269;51.894;4.622;2022-07-30T13:52:00;5.80;;;1.30;;
38499;SDS011;24269;51.894;4.622;2022-07-30T13:54:25;4.65;;;1.27;;
38499;SDS011;24269;51.894;4.622;2022-07-30T13:56:53;6.70;;;1.70;;
38499;SDS011;24269;51.894;4.622;2022-07-30T13:59:18;6.53;;;1.23;;
38499;SDS011;24269;51.894;4.622;2022-07-30T14:01:44;4.72;;;1.27;;
38499;SDS011;24269;51.894;4.622;2022-07-30T14:04:10;5.72;;;1.30;;
38499;SDS011;24269;51.894;4.622;2022-07-30T14:06:35;6.63;;;1.55;;
38499;SDS011;24269;51.894;4.622;2022-07-30T14:09:01;6.88;;;1.20;;
38499;SDS011;24269;51.894;4.622;2022-07-30T14:11:27;4.88;;;1.50;;
38499;SDS011;24269;51.894;4.622;2022-07-30T14:13:53;4.15;;;1.38;;
38499;SDS011;24269;51.894;4.622;2022-07-30T14:16:18;4.47;;;1.35;;
38499;SDS011;24269;51.894;4.622;2022-07-30T14:18:44;5.82;;;1.55;;
38499;SDS011;24269;51.894;4.622;2022-07-30T14:21:10;4.18;;;1.25;;
38499;SDS011;24269;51.894;4.622;2022-07-30T14:23:35;4.80;;;1.20;;
38499;SDS011;24269;51.894;4.622;2022-07-30T14:26:01;5.70;;;1.63;;
38499;SDS011;24269;51.894;4.622;2022-07-30T14:28:27;4.60;;;1.48;;
38499;SDS011;24269;51.894;4.622;2022-07-30T14:30:52;7.15;;;1.50;;
38499;SDS011;24269;51.894;4.622;2022-07-30T14:33:18;4.93;;;1.40;;
38499;SDS011;24269;51.894;4.622;2022-07-30T14:35:44;5.68;;;1.20;;
38499;SDS011;24269;51.894;4.622;2022-07-30T14:38:09;4.97;;;1.40;;
38499;SDS011;24269;51.894;4.622;2022-07-30T14:40:35;5.25;;;1.35;;
38499;SDS011;24269;51.894;4.622;2022-07-30T14:43:01;5.13;;;1.30;;
38499;SDS011;24269;51.894;4.622;2022-07-30T14:45:26;8.32;;;1.33;;
38499;SDS011;24269;51.894;4.622;2022-07-30T14:47:52;6.60;;;1.73;;
38499;SDS011;24269;51.894;4.622;2022-07-30T14:50:18;5.72;;;1.38;;
38499;SDS011;24269;51.894;4.622;2022-07-30T14:52:43;6.13;;;1.27;;
38499;SDS011;24269;51.894;4.622;2022-07-30T14:55:11;5.53;;;1.30;;
38499;SDS011;24269;51.894;4.622;2022-07-30T14:57:36;4.70;;;1.60;;
38499;SDS011;24269;51.894;4.622;2022-07-30T15:00:03;4.65;;;1.30;;
38499;SDS011;24269;51.894;4.622;2022-07-30T15:02:31;7.78;;;1.50;;
38499;SDS011;24269;51.894;4.622;2022-07-30T15:04:56;6.90;;;1.30;;
38499;SDS011;24269;51.894;4.622;2022-07-30T15:07:22;5.60;;;1.50;;
38499;SDS011;24269;51.894;4.622;2022-07-30T15:09:48;3.97;;;1.00;;
38499;SDS011;24269;51.894;4.622;2022-07-30T15:12:13;6.47;;;1.40;;
38499;SDS011;24269;51.894;4.622;2022-07-30T15:14:40;5.63;;;1.48;;
38499;SDS011;24269;51.894;4.622;2022-07-30T15:17:06;7.30;;;1.55;;
38499;SDS011;24269;51.894;4.622;2022-07-30T15:19:32;5.68;;;1.40;;
38499;SDS011;24269;51.894;4.622;2022-07-30T15:21:58;5.10;;;1.45;;
38499;SDS011;24269;51.894;4.622;2022-07-30T15:24:25;2.75;;;1.23;;
38499;SDS011;24269;51.894;4.622;2022-07-30T15:26:51;4.32;;;1.58;;
38499;SDS011;24269;51.894;4.622;2022-07-30T15:29:18;6.03;;;1.63;;
38499;SDS011;24269;51.894;4.622;2022-07-30T15:31:44;7.03;;;1.90;;